« Back
NWS Peachtree City, Ga » Text Product » CSG Terminal Aerodrome Forecast


Printer-friendly Version
Current Version              Previous Versions:   1  2  3  4  5  6  7  8  9  

Terminal Aerodrome Forecast

397
FTUS42 KFFC 240344 AAB
TAFCSG
TAF AMD
KCSG 240344Z 2404/2424 22008KT P6SM OVC015
     FM240500 20008KT 2SM BR OVC006
     FM241400 24010G15KT P6SM BKN015 OVC030
     FM241600 25010G20KT P6SM SCT035
     FM242300 27007KT P6SM FEW200=

USA.gov is the U.S. government's official web portal to all federal, state and local government web resources and services.